createdAt,value
2023-02-15T00:02:36.451Z,80.26
2023-02-15T00:07:43.890Z,79.75
2023-02-15T00:12:51.081Z,79.20
2023-02-15T00:17:56.708Z,79.26
2023-02-15T00:23:04.463Z,79.50
2023-02-15T00:28:12.132Z,79.71
2023-02-15T00:33:19.808Z,79.89
2023-02-15T00:38:28.491Z,79.44
2023-02-15T00:43:37.621Z,79.63
2023-02-15T00:48:45.393Z,80.23
2023-02-15T00:53:53.357Z,80.36
2023-02-15T00:59:01.891Z,80.61
2023-02-15T01:04:10.500Z,80.64
2023-02-15T01:09:20.060Z,80.72
2023-02-15T01:14:29.121Z,80.66
2023-02-15T01:19:36.931Z,80.73
2023-02-15T01:24:45.784Z,80.61
2023-02-15T01:29:53.997Z,80.66
2023-02-15T01:35:03.629Z,80.38
2023-02-15T01:40:18.764Z,80.42
2023-02-15T01:45:29.151Z,80.39
2023-02-15T01:50:40.923Z,80.25
2023-02-15T01:55:52.990Z,80.28
2023-02-15T02:01:04.855Z,80.56
2023-02-15T02:06:12.402Z,80.61
2023-02-15T02:11:19.769Z,80.30
2023-02-15T02:16:32.392Z,80.54
2023-02-15T02:29:20.615Z,80.46
2023-02-15T02:34:32.803Z,80.34
2023-02-15T02:39:48.773Z,80.73
2023-02-15T02:45:02.796Z,81.36
2023-02-15T02:50:15.275Z,81.06
2023-02-15T02:55:29.872Z,80.83
2023-02-15T03:00:42.739Z,81.01
2023-02-15T03:05:53.354Z,81.66
2023-02-15T03:11:03.951Z,81.68
2023-02-15T03:16:29.210Z,81.91
2023-02-15T03:21:40.553Z,81.63
2023-02-15T03:26:52.464Z,81.75
2023-02-15T03:32:04.174Z,81.97
2023-02-15T03:37:18.222Z,82.00
2023-02-15T03:42:32.257Z,82.09
2023-02-15T03:47:43.796Z,82.28
2023-02-15T03:52:51.682Z,82.19
2023-02-15T03:58:16.881Z,82.41
2023-02-15T04:03:34.935Z,82.18
2023-02-15T04:09:00.915Z,82.68
2023-02-15T04:14:36.937Z,82.58
2023-02-15T04:20:02.178Z,82.57
2023-02-15T04:25:13.957Z,82.56
2023-02-15T04:30:24.062Z,82.72
2023-02-15T04:35:32.990Z,82.79
2023-02-15T04:40:40.453Z,82.83
2023-02-15T04:45:52.824Z,82.81
2023-02-15T04:51:00.684Z,82.80
2023-02-15T04:56:09.821Z,82.57
2023-02-15T05:01:17.327Z,82.75
2023-02-15T05:06:25.062Z,82.79
2023-02-15T05:11:32.721Z,83.05
2023-02-15T05:16:40.159Z,83.03
2023-02-15T05:21:47.663Z,82.98
2023-02-15T05:27:12.780Z,83.11
2023-02-15T05:32:20.626Z,83.09
2023-02-15T05:37:28.280Z,83.19
2023-02-15T05:42:35.857Z,83.18
2023-02-15T05:47:43.594Z,83.24
2023-02-15T05:52:52.521Z,82.99
2023-02-15T05:58:02.557Z,82.79
2023-02-15T06:03:10.251Z,83.05
2023-02-15T06:08:20.398Z,83.25
2023-02-15T06:13:28.468Z,83.42
2023-02-15T06:18:36.176Z,83.43
2023-02-15T06:23:44.397Z,83.36
2023-02-15T06:28:51.949Z,83.40
2023-02-15T06:34:02.399Z,83.46
2023-02-15T06:39:09.981Z,83.52
2023-02-15T06:44:17.378Z,83.54
2023-02-15T06:49:24.842Z,83.54
2023-02-15T06:54:32.358Z,83.49
2023-02-15T06:59:39.454Z,83.61
2023-02-15T07:04:46.823Z,83.19
2023-02-15T07:09:53.964Z,83.59
2023-02-15T07:15:00.359Z,83.42
2023-02-15T07:20:10.069Z,83.40
2023-02-15T07:28:19.471Z,83.60
2023-02-15T07:33:28.891Z,83.47
2023-02-15T07:38:39.880Z,83.27
2023-02-15T07:43:48.619Z,83.13
2023-02-15T07:48:56.496Z,83.15
2023-02-15T07:54:04.219Z,83.10
2023-02-15T07:59:11.701Z,82.87
2023-02-15T08:04:19.321Z,82.69
2023-02-15T08:09:26.825Z,83.21
2023-02-15T08:14:34.057Z,83.25
2023-02-15T08:19:39.633Z,83.20
2023-02-15T08:28:36.141Z,82.48
2023-02-15T08:33:45.293Z,82.25
2023-02-15T08:38:53.145Z,82.09
2023-02-15T08:44:04.850Z,82.56
2023-02-15T08:49:14.160Z,82.35
2023-02-15T08:54:23.686Z,82.64
2023-02-15T08:59:32.058Z,82.44
2023-02-15T09:04:39.864Z,82.48
2023-02-15T09:09:48.290Z,82.20
2023-02-15T09:14:55.602Z,81.93
2023-02-15T09:20:03.208Z,81.85
2023-02-15T09:25:11.272Z,81.21
2023-02-15T09:30:19.586Z,81.77
2023-02-15T09:35:27.526Z,81.84
2023-02-15T09:40:42.165Z,81.45
2023-02-15T09:46:16.354Z,81.37
2023-02-15T09:51:37.018Z,81.10
2023-02-15T09:56:50.743Z,80.95
2023-02-15T10:02:17.742Z,80.68
2023-02-15T10:07:40.070Z,80.58
2023-02-15T10:13:15.669Z,80.35
2023-02-15T10:18:41.338Z,79.81
2023-02-15T10:24:10.624Z,79.03
2023-02-15T10:29:30.049Z,78.98
2023-02-15T10:34:41.977Z,78.44
2023-02-15T10:40:01.466Z,78.32
2023-02-15T10:45:23.414Z,78.29
2023-02-15T10:50:45.665Z,77.84
2023-02-15T10:56:05.372Z,77.90
2023-02-15T11:01:22.632Z,77.70
2023-02-15T11:06:30.734Z,77.12
2023-02-15T11:11:43.152Z,76.06
2023-02-15T11:16:55.721Z,76.66
2023-02-15T11:28:21.649Z,76.11
2023-02-15T11:33:33.077Z,76.14
2023-02-15T11:38:44.663Z,75.99
2023-02-15T11:43:58.158Z,75.56
2023-02-15T11:49:07.297Z,75.28
2023-02-15T11:54:15.592Z,75.00
2023-02-15T11:59:32.005Z,74.77
2023-02-15T12:04:45.521Z,74.77
2023-02-15T12:10:01.871Z,74.72
2023-02-15T12:15:11.406Z,74.15
2023-02-15T12:20:31.561Z,74.15
2023-02-15T12:25:43.609Z,73.80
2023-02-15T12:30:51.420Z,72.97
2023-02-15T12:36:03.162Z,73.11
2023-02-15T12:41:27.772Z,72.95
2023-02-15T12:46:38.614Z,72.22
2023-02-15T12:51:53.915Z,71.98
2023-02-15T12:57:02.008Z,72.22
2023-02-15T13:02:17.821Z,71.88
2023-02-15T13:07:26.843Z,71.93
2023-02-15T13:12:35.921Z,71.88
2023-02-15T13:17:45.268Z,71.87
2023-02-15T13:22:55.172Z,71.58
2023-02-15T13:28:05.707Z,72.29
2023-02-15T13:33:20.862Z,71.97
2023-02-15T13:38:49.365Z,72.02
2023-02-15T13:44:06.566Z,72.04
2023-02-15T13:49:29.546Z,71.71
2023-02-15T13:54:56.257Z,71.93
2023-02-15T14:00:16.485Z,71.62
2023-02-15T14:05:37.192Z,71.82
2023-02-15T14:10:52.424Z,71.68
2023-02-15T14:16:05.844Z,71.76
2023-02-15T14:21:17.858Z,71.99
2023-02-15T14:26:39.422Z,72.12
2023-02-15T14:31:52.969Z,72.30
2023-02-15T14:37:02.219Z,72.39
2023-02-15T14:42:18.153Z,72.59
2023-02-15T14:47:32.148Z,72.29
2023-02-15T14:53:16.700Z,72.76
2023-02-15T14:58:24.827Z,73.15
2023-02-15T15:03:33.026Z,73.34
2023-02-15T15:08:43.990Z,73.39
2023-02-15T15:13:58.844Z,73.77
2023-02-15T15:19:11.576Z,73.74
2023-02-15T15:24:52.263Z,73.90
2023-02-15T15:30:00.330Z,74.30
2023-02-15T15:35:24.456Z,74.42
2023-02-15T15:41:11.476Z,74.81
2023-02-15T15:46:34.893Z,75.31
2023-02-15T15:51:45.773Z,75.53
2023-02-15T15:56:58.341Z,75.78
2023-02-15T16:02:10.135Z,75.79
2023-02-15T16:07:29.193Z,76.37
2023-02-15T16:12:38.895Z,76.90
2023-02-15T16:17:49.920Z,77.52
2023-02-15T16:23:08.556Z,77.57
2023-02-15T16:28:19.705Z,78.15
2023-02-15T16:33:37.048Z,78.26
2023-02-15T16:39:08.169Z,78.69
2023-02-15T16:44:21.617Z,78.58
2023-02-15T16:49:32.512Z,78.72
2023-02-15T16:54:44.194Z,79.15
2023-02-15T16:59:54.401Z,79.24
2023-02-15T17:05:22.442Z,79.64
2023-02-15T17:10:37.617Z,79.61
2023-02-15T17:15:46.500Z,80.00
2023-02-15T17:20:56.907Z,80.12
2023-02-15T17:28:30.716Z,80.51
2023-02-15T17:33:42.226Z,80.73
2023-02-15T17:39:07.507Z,81.01
2023-02-15T17:44:16.829Z,81.38
2023-02-15T17:49:29.897Z,81.41
2023-02-15T17:54:54.944Z,81.56
2023-02-15T18:00:19.951Z,81.66
2023-02-15T18:05:45.310Z,81.51
2023-02-15T18:11:10.581Z,81.57
2023-02-15T18:16:28.170Z,81.55
2023-02-15T18:21:37.242Z,81.38
2023-02-15T18:26:45.134Z,81.32
2023-02-15T18:31:56.653Z,81.83
2023-02-15T18:37:06.935Z,82.37
2023-02-15T18:42:23.006Z,83.03
2023-02-15T18:47:30.714Z,82.64
2023-02-15T18:52:40.851Z,82.69
2023-02-15T18:57:49.668Z,83.14
2023-02-15T19:02:57.614Z,83.60
2023-02-15T19:08:06.274Z,84.64
2023-02-15T19:13:15.169Z,84.17
2023-02-15T19:18:22.628Z,84.34
2023-02-15T19:23:31.675Z,84.89
2023-02-15T19:28:39.278Z,85.33
2023-02-15T19:33:46.845Z,86.61
2023-02-15T19:38:56.440Z,87.63
2023-02-15T19:44:04.105Z,87.94
2023-02-15T19:49:13.934Z,87.48
2023-02-15T19:54:33.018Z,87.39
2023-02-15T19:59:41.704Z,87.75
2023-02-15T20:04:49.800Z,87.90
2023-02-15T20:09:57.341Z,87.84
2023-02-15T20:15:17.921Z,86.89
2023-02-15T20:20:30.478Z,87.36
2023-02-15T20:25:37.940Z,86.72
2023-02-15T20:30:46.075Z,86.96
2023-02-15T20:35:54.183Z,87.68
2023-02-15T20:41:20.041Z,87.01
2023-02-15T20:46:28.286Z,86.76
2023-02-15T20:51:36.802Z,87.21
2023-02-15T20:56:45.206Z,87.48
2023-02-15T21:01:55.828Z,88.32
2023-02-15T21:07:04.032Z,88.42
2023-02-15T21:12:16.846Z,87.97
2023-02-15T21:17:24.216Z,87.32
2023-02-15T21:22:31.892Z,87.53
2023-02-15T21:27:39.489Z,88.38
2023-02-15T21:32:47.403Z,89.33
2023-02-15T21:37:55.924Z,88.96
2023-02-15T21:43:21.652Z,88.76
2023-02-15T21:48:29.545Z,89.88
2023-02-15T21:53:40.899Z,90.30
2023-02-15T21:58:49.706Z,90.60
2023-02-15T22:03:59.904Z,90.94
2023-02-15T22:09:18.040Z,90.86
2023-02-15T22:14:39.519Z,90.87
2023-02-15T22:19:48.618Z,90.21
2023-02-15T22:24:56.279Z,89.99
2023-02-15T22:30:04.602Z,89.91
2023-02-15T22:35:17.793Z,89.67
2023-02-15T22:40:32.033Z,89.51
2023-02-15T22:45:39.812Z,89.08
2023-02-15T22:50:47.693Z,89.34
2023-02-15T22:55:56.785Z,90.16
2023-02-15T23:01:05.716Z,90.12
2023-02-15T23:06:14.820Z,90.13
2023-02-15T23:11:22.739Z,90.31
2023-02-15T23:16:30.362Z,89.83
2023-02-15T23:21:38.477Z,90.15
2023-02-15T23:26:46.288Z,90.12
2023-02-15T23:31:55.148Z,90.22
2023-02-15T23:37:02.719Z,90.58
2023-02-15T23:42:13.978Z,91.04
2023-02-15T23:47:39.770Z,91.12
2023-02-15T23:52:47.038Z,91.60
2023-02-15T23:57:52.560Z,91.24
